createdAt,value
2017-10-17T00:01:30.960Z,23.32
2017-10-17T00:03:33.393Z,23.31
2017-10-17T00:05:35.903Z,23.31
2017-10-17T00:07:38.352Z,23.31
2017-10-17T00:09:40.844Z,23.31
2017-10-17T00:11:43.421Z,23.30
2017-10-17T00:13:45.911Z,23.31
2017-10-17T00:15:48.442Z,23.31
2017-10-17T00:17:50.917Z,23.31
2017-10-17T00:19:53.389Z,23.30
2017-10-17T00:21:55.897Z,23.30
2017-10-17T00:23:58.451Z,23.30
2017-10-17T00:26:00.897Z,23.30
2017-10-17T00:28:03.341Z,23.29
2017-10-17T00:30:05.817Z,23.29
2017-10-17T00:32:08.283Z,23.30
2017-10-17T00:34:10.791Z,23.30
2017-10-17T00:36:31.800Z,23.29
2017-10-17T00:38:34.880Z,23.30
2017-10-17T00:40:37.346Z,23.29
2017-10-17T00:42:39.846Z,23.28
2017-10-17T00:44:42.397Z,23.29
2017-10-17T00:46:44.858Z,23.29
2017-10-17T00:48:47.412Z,23.29
2017-10-17T00:50:49.880Z,23.28
2017-10-17T00:52:52.319Z,23.29
2017-10-17T00:54:54.902Z,23.29
2017-10-17T00:56:57.349Z,23.29
2017-10-17T00:58:59.884Z,23.29
2017-10-17T01:01:02.353Z,23.28
2017-10-17T01:03:04.824Z,23.28
2017-10-17T01:05:07.284Z,23.28
2017-10-17T01:07:09.744Z,23.28
2017-10-17T01:09:12.188Z,23.28
2017-10-17T01:11:14.704Z,23.28
2017-10-17T01:13:19.854Z,23.28
2017-10-17T01:15:22.313Z,23.28
2017-10-17T01:17:24.765Z,23.28
2017-10-17T01:19:27.233Z,23.27
2017-10-17T01:21:29.695Z,23.27
2017-10-17T01:26:21.740Z,23.26
2017-10-17T01:28:24.181Z,23.26
2017-10-17T01:30:26.620Z,23.25
2017-10-17T01:32:29.117Z,23.25
2017-10-17T01:34:32.484Z,23.25
2017-10-17T01:36:34.934Z,23.25
2017-10-17T01:38:38.329Z,23.25
2017-10-17T01:40:40.772Z,23.25
2017-10-17T01:42:43.265Z,23.25
2017-10-17T01:44:45.732Z,23.25
2017-10-17T01:46:49.044Z,23.25
2017-10-17T01:48:53.041Z,23.25
2017-10-17T01:50:56.423Z,23.25
2017-10-17T01:53:24.637Z,23.25
2017-10-17T01:55:27.145Z,23.23
2017-10-17T01:57:34.185Z,23.22
2017-10-17T02:02:11.546Z,23.22
2017-10-17T02:04:14.033Z,23.22
2017-10-17T02:06:16.488Z,23.23
2017-10-17T02:08:18.974Z,23.22
2017-10-17T02:10:22.186Z,23.22
2017-10-17T02:12:24.644Z,23.22
2017-10-17T02:14:27.132Z,23.22
2017-10-17T02:16:29.587Z,23.22
2017-10-17T02:18:35.573Z,23.22
2017-10-17T02:20:38.194Z,23.22
2017-10-17T02:22:44.141Z,23.22
2017-10-17T02:24:47.181Z,23.22
2017-10-17T02:26:49.661Z,23.21
2017-10-17T02:28:52.917Z,23.21
2017-10-17T02:31:00.839Z,23.21
2017-10-17T02:33:03.347Z,23.21
2017-10-17T02:35:09.502Z,23.21
2017-10-17T02:37:11.958Z,23.21
2017-10-17T02:39:14.527Z,23.21
2017-10-17T02:41:16.988Z,23.20
2017-10-17T02:43:19.424Z,23.21
2017-10-17T02:45:21.892Z,23.21
2017-10-17T02:47:24.489Z,23.21
2017-10-17T02:49:43.689Z,23.20
2017-10-17T02:51:46.160Z,23.20
2017-10-17T02:53:48.734Z,23.20
2017-10-17T02:55:51.306Z,23.20
2017-10-17T02:57:53.782Z,23.20
2017-10-17T02:59:58.026Z,23.20
2017-10-17T03:02:01.065Z,23.19
2017-10-17T03:04:03.498Z,23.19
2017-10-17T03:06:05.965Z,23.20
2017-10-17T03:08:08.490Z,23.19
2017-10-17T03:10:11.060Z,23.20
2017-10-17T03:12:13.521Z,23.19
2017-10-17T03:14:16.006Z,23.19
2017-10-17T03:16:18.468Z,23.19
2017-10-17T03:18:20.937Z,23.19
2017-10-17T03:20:24.124Z,23.19
2017-10-17T03:22:26.580Z,23.19
2017-10-17T03:24:35.618Z,23.19
2017-10-17T03:26:38.095Z,23.18
2017-10-17T03:28:47.274Z,23.18
2017-10-17T03:30:49.739Z,23.18
2017-10-17T03:33:07.104Z,23.18
2017-10-17T03:35:10.331Z,23.17
2017-10-17T03:39:46.525Z,23.16
2017-10-17T03:41:48.959Z,23.16
2017-10-17T03:43:54.279Z,23.17
2017-10-17T03:45:56.731Z,23.16
2017-10-17T03:48:01.087Z,23.17
2017-10-17T03:50:04.344Z,23.16
2017-10-17T03:54:42.341Z,23.15
2017-10-17T03:56:44.935Z,23.15
2017-10-17T03:58:47.409Z,23.15
2017-10-17T04:00:49.896Z,23.16
2017-10-17T04:03:07.953Z,23.16
2017-10-17T04:05:33.895Z,23.15
2017-10-17T04:07:53.624Z,23.14
2017-10-17T04:10:02.943Z,23.14
2017-10-17T04:12:05.401Z,23.14
2017-10-17T04:14:08.658Z,23.14
2017-10-17T04:18:53.784Z,23.12
2017-10-17T04:23:34.048Z,23.12
2017-10-17T04:28:31.913Z,23.12
2017-10-17T04:30:42.998Z,23.11
2017-10-17T04:32:47.104Z,23.10
2017-10-17T04:34:49.545Z,23.11
2017-10-17T04:36:52.860Z,23.11
2017-10-17T04:38:55.344Z,23.11
2017-10-17T04:40:57.785Z,23.12
2017-10-17T04:43:12.071Z,23.12
2017-10-17T04:47:47.194Z,23.11
2017-10-17T04:50:01.441Z,23.11
2017-10-17T04:52:09.368Z,23.10
2017-10-17T04:54:33.273Z,23.10
2017-10-17T04:56:35.786Z,23.10
2017-10-17T05:01:08.465Z,23.09
2017-10-17T05:03:15.447Z,23.10
2017-10-17T05:05:25.741Z,23.10
2017-10-17T05:07:29.023Z,23.09
2017-10-17T05:09:32.254Z,23.10
2017-10-17T05:11:34.759Z,23.10
2017-10-17T05:16:23.991Z,23.09
2017-10-17T05:18:29.784Z,23.10
2017-10-17T05:20:51.674Z,23.10
2017-10-17T05:25:29.717Z,23.09
2017-10-17T05:27:54.685Z,23.09
2017-10-17T05:30:01.967Z,23.09
2017-10-17T05:32:04.474Z,23.09
2017-10-17T05:34:10.675Z,23.09
2017-10-17T05:38:52.290Z,23.09
2017-10-17T05:40:54.957Z,23.09
2017-10-17T05:42:57.432Z,23.08
2017-10-17T05:45:01.792Z,23.09
2017-10-17T05:47:06.758Z,23.08
2017-10-17T05:51:39.246Z,23.08
2017-10-17T05:53:41.709Z,23.09
2017-10-17T05:55:44.246Z,23.10
2017-10-17T05:57:46.697Z,23.09
2017-10-17T05:59:49.320Z,23.10
2017-10-17T06:01:51.845Z,23.10
2017-10-17T06:03:54.293Z,23.10
2017-10-17T06:05:56.862Z,23.10
2017-10-17T06:07:59.336Z,23.10
2017-10-17T06:10:01.772Z,23.11
2017-10-17T06:12:04.228Z,23.11
2017-10-17T06:14:06.757Z,23.11
2017-10-17T06:16:09.216Z,23.12
2017-10-17T06:18:11.686Z,23.12
2017-10-17T06:20:14.161Z,23.12
2017-10-17T06:22:16.688Z,23.12
2017-10-17T06:24:19.137Z,23.12
2017-10-17T06:26:21.729Z,23.12
2017-10-17T06:28:24.177Z,23.12
2017-10-17T06:30:26.619Z,23.12
2017-10-17T06:32:29.126Z,23.12
2017-10-17T06:34:31.577Z,23.12
2017-10-17T06:36:34.040Z,23.12
2017-10-17T06:38:36.500Z,23.13
2017-10-17T06:40:38.940Z,23.14
2017-10-17T06:42:41.368Z,23.14
2017-10-17T06:44:43.841Z,23.15
2017-10-17T06:46:46.281Z,23.16
2017-10-17T06:48:48.761Z,23.17
2017-10-17T06:50:51.223Z,23.19
2017-10-17T06:52:53.680Z,23.20
2017-10-17T06:54:56.144Z,23.22
2017-10-17T06:56:58.620Z,23.24
2017-10-17T06:59:01.071Z,23.25
2017-10-17T07:01:03.670Z,23.27
2017-10-17T07:03:07.702Z,23.28
2017-10-17T07:05:12.558Z,23.30
2017-10-17T07:07:16.442Z,23.31
2017-10-17T07:09:20.230Z,23.32
2017-10-17T07:11:23.991Z,23.33
2017-10-17T07:13:27.993Z,23.35
2017-10-17T07:15:32.079Z,23.35
2017-10-17T07:17:36.180Z,23.37
2017-10-17T07:19:40.178Z,23.38
2017-10-17T07:21:44.523Z,23.40
2017-10-17T07:23:48.491Z,23.40
2017-10-17T07:25:52.629Z,23.42
2017-10-17T07:27:55.190Z,23.43
2017-10-17T07:29:59.280Z,23.45
2017-10-17T07:32:03.173Z,23.46
2017-10-17T07:34:07.190Z,23.48
2017-10-17T07:36:11.032Z,23.49
2017-10-17T07:38:15.170Z,23.51
2017-10-17T07:40:19.522Z,23.53
2017-10-17T07:42:23.556Z,23.54
2017-10-17T07:44:27.540Z,23.55
2017-10-17T07:46:31.301Z,23.57
2017-10-17T07:48:35.472Z,23.58
2017-10-17T07:50:38.896Z,23.59
2017-10-17T07:52:43.701Z,23.60
2017-10-17T07:54:47.611Z,23.62
2017-10-17T07:56:51.948Z,23.63
2017-10-17T07:58:56.443Z,23.64
2017-10-17T08:01:00.414Z,23.65
2017-10-17T08:03:05.211Z,23.67
2017-10-17T08:05:09.714Z,23.68
2017-10-17T08:07:13.996Z,23.69
2017-10-17T08:09:17.945Z,23.70
2017-10-17T08:11:22.461Z,23.72
2017-10-17T08:13:26.614Z,23.74
2017-10-17T08:15:30.658Z,23.74
2017-10-17T08:17:34.821Z,23.75
2017-10-17T08:19:38.684Z,23.76
2017-10-17T08:21:43.623Z,23.78
2017-10-17T08:23:47.957Z,23.79
2017-10-17T08:25:52.107Z,23.80
2017-10-17T08:27:55.669Z,23.81
2017-10-17T08:29:59.475Z,23.83
2017-10-17T08:32:03.493Z,23.84
2017-10-17T08:34:07.370Z,23.85
2017-10-17T08:36:11.740Z,23.86
2017-10-17T08:38:15.801Z,23.88
2017-10-17T08:40:19.835Z,23.88
2017-10-17T08:42:24.340Z,23.89
2017-10-17T08:44:27.757Z,23.89
2017-10-17T08:46:32.312Z,23.90
2017-10-17T08:48:34.876Z,23.91
2017-10-17T08:50:37.336Z,23.92
2017-10-17T08:52:39.781Z,23.93
2017-10-17T08:54:42.245Z,23.93
2017-10-17T08:56:44.896Z,23.94
2017-10-17T08:58:47.370Z,23.95
2017-10-17T09:00:49.845Z,23.95
2017-10-17T09:02:52.313Z,23.95
2017-10-17T09:04:54.820Z,23.96
2017-10-17T09:06:57.290Z,23.97
2017-10-17T09:08:59.807Z,23.96
2017-10-17T09:11:02.255Z,23.97
2017-10-17T09:13:04.729Z,23.98
2017-10-17T09:15:07.175Z,23.99
2017-10-17T09:17:09.618Z,24.00
2017-10-17T09:19:12.112Z,24.01
2017-10-17T09:21:14.609Z,24.01
2017-10-17T09:23:17.053Z,24.02
2017-10-17T09:25:19.557Z,24.03
2017-10-17T09:27:22.004Z,24.02
2017-10-17T09:29:24.497Z,24.03
2017-10-17T09:31:26.964Z,24.04
2017-10-17T09:33:29.410Z,24.04
2017-10-17T09:35:31.908Z,24.05
2017-10-17T09:37:34.357Z,24.05
2017-10-17T09:39:36.791Z,24.05
2017-10-17T09:41:39.324Z,24.06
2017-10-17T09:43:41.788Z,24.07
2017-10-17T09:45:44.226Z,24.07
2017-10-17T09:47:46.680Z,24.08
2017-10-17T09:49:49.220Z,24.08
2017-10-17T09:51:51.661Z,24.08
2017-10-17T09:53:54.109Z,24.10
2017-10-17T09:55:56.569Z,24.09
2017-10-17T09:57:59.039Z,24.10
2017-10-17T10:00:01.492Z,24.10
2017-10-17T10:02:03.980Z,24.11
2017-10-17T10:04:06.450Z,24.12
2017-10-17T10:06:08.933Z,24.13
2017-10-17T10:08:11.396Z,24.13
2017-10-17T10:10:13.906Z,24.15
2017-10-17T10:12:16.353Z,24.15
2017-10-17T10:14:18.821Z,24.16
2017-10-17T10:16:21.268Z,24.17
2017-10-17T10:18:23.720Z,24.19
2017-10-17T10:20:26.192Z,24.19
2017-10-17T10:22:28.646Z,24.20
2017-10-17T10:24:31.088Z,24.21
2017-10-17T10:26:33.547Z,24.21
2017-10-17T10:28:36.028Z,24.22
2017-10-17T10:30:38.490Z,24.22
2017-10-17T10:32:40.968Z,24.24
2017-10-17T10:34:43.410Z,24.24
2017-10-17T10:36:45.917Z,24.25
2017-10-17T10:38:48.413Z,24.26
2017-10-17T10:40:50.857Z,24.26
2017-10-17T10:42:53.337Z,24.27
2017-10-17T10:44:55.913Z,24.27
2017-10-17T10:46:58.360Z,24.27
2017-10-17T10:49:00.807Z,24.29
2017-10-17T10:51:03.261Z,24.29
2017-10-17T10:53:05.701Z,24.29
2017-10-17T10:55:08.249Z,24.30
2017-10-17T10:57:10.729Z,24.31
2017-10-17T10:59:13.197Z,24.32
2017-10-17T11:01:15.660Z,24.33
2017-10-17T11:03:18.241Z,24.33
2017-10-17T11:05:20.704Z,24.34
2017-10-17T11:07:23.374Z,24.34
2017-10-17T11:09:25.959Z,24.35
2017-10-17T11:11:28.421Z,24.35
2017-10-17T11:13:30.862Z,24.36
2017-10-17T11:15:33.336Z,24.37
2017-10-17T11:17:35.856Z,24.38
2017-10-17T11:19:38.347Z,24.39
2017-10-17T11:21:40.817Z,24.40
2017-10-17T11:23:43.277Z,24.40
2017-10-17T11:25:45.737Z,24.41
2017-10-17T11:27:48.214Z,24.41
2017-10-17T11:29:50.673Z,24.42
2017-10-17T11:31:53.146Z,24.42
2017-10-17T11:33:55.651Z,24.43
2017-10-17T11:35:58.085Z,24.42
2017-10-17T11:38:00.551Z,24.43
2017-10-17T11:40:03.029Z,24.42
2017-10-17T11:42:17.345Z,24.43
2017-10-17T11:44:19.813Z,24.42
2017-10-17T11:46:22.366Z,24.43
2017-10-17T11:48:24.893Z,24.43
2017-10-17T11:50:27.393Z,24.44
2017-10-17T11:52:29.864Z,24.44
2017-10-17T11:54:32.401Z,24.45
2017-10-17T11:56:34.848Z,24.45
2017-10-17T11:58:37.316Z,24.45
2017-10-17T12:00:39.783Z,24.45
2017-10-17T12:02:42.224Z,24.46
2017-10-17T12:04:44.680Z,24.46
2017-10-17T12:06:47.140Z,24.48
2017-10-17T12:08:49.776Z,24.48
2017-10-17T12:10:52.244Z,24.49
2017-10-17T12:12:54.689Z,24.49
2017-10-17T12:14:57.141Z,24.49
2017-10-17T12:16:59.613Z,24.50
2017-10-17T12:19:02.118Z,24.50
2017-10-17T12:21:04.616Z,24.51
2017-10-17T12:23:07.097Z,24.51
2017-10-17T12:25:09.598Z,24.52
2017-10-17T12:27:12.048Z,24.52
2017-10-17T12:29:14.517Z,24.53
2017-10-17T12:31:17.007Z,24.53
2017-10-17T12:33:19.577Z,24.53
2017-10-17T12:35:22.044Z,24.53
2017-10-17T12:37:24.505Z,24.54
2017-10-17T12:39:27.298Z,24.55
2017-10-17T12:41:30.560Z,24.55
2017-10-17T12:43:33.283Z,24.56
2017-10-17T12:45:35.777Z,24.56
2017-10-17T12:47:38.232Z,24.57
2017-10-17T12:49:40.680Z,24.57
2017-10-17T12:51:43.129Z,24.58
2017-10-17T12:53:45.655Z,24.58
2017-10-17T12:55:48.130Z,24.59
2017-10-17T12:57:50.570Z,24.58
2017-10-17T12:59:53.081Z,24.59
2017-10-17T13:01:55.554Z,24.59
2017-10-17T13:03:58.102Z,24.59
2017-10-17T13:06:00.679Z,24.59
2017-10-17T13:08:03.141Z,24.60
2017-10-17T13:10:05.680Z,24.60
2017-10-17T13:12:08.188Z,24.60
2017-10-17T13:14:10.636Z,24.61
2017-10-17T13:16:13.077Z,24.61
2017-10-17T13:18:15.592Z,24.61
2017-10-17T13:20:18.144Z,24.62
2017-10-17T13:22:20.641Z,24.62
2017-10-17T13:24:23.222Z,24.62
2017-10-17T13:26:25.676Z,24.62
2017-10-17T13:28:28.145Z,24.62
2017-10-17T13:30:30.618Z,24.62
2017-10-17T13:32:33.065Z,24.62
2017-10-17T13:34:35.518Z,24.62
2017-10-17T13:36:38.000Z,24.62
2017-10-17T13:38:40.568Z,24.61
2017-10-17T13:40:43.092Z,24.61
2017-10-17T13:42:45.565Z,24.61
2017-10-17T13:44:48.007Z,24.61
2017-10-17T13:46:50.454Z,24.61
2017-10-17T13:48:52.967Z,24.60
2017-10-17T13:50:55.415Z,24.60
2017-10-17T13:52:57.901Z,24.60
2017-10-17T13:55:00.369Z,24.60
2017-10-17T13:57:02.808Z,24.59
2017-10-17T13:59:05.258Z,24.60
2017-10-17T14:01:07.723Z,24.60
2017-10-17T14:03:10.210Z,24.60
2017-10-17T14:05:12.644Z,24.60
2017-10-17T14:07:15.192Z,24.60
2017-10-17T14:09:17.637Z,24.60
2017-10-17T14:11:20.308Z,24.60
2017-10-17T14:13:22.806Z,24.60
2017-10-17T14:15:25.294Z,24.61
2017-10-17T14:17:27.744Z,24.60
2017-10-17T14:19:30.223Z,24.59
2017-10-17T14:21:32.689Z,24.59
2017-10-17T14:23:35.160Z,24.59
2017-10-17T14:25:37.621Z,24.58
2017-10-17T14:27:40.085Z,24.58
2017-10-17T14:29:42.528Z,24.58
2017-10-17T14:31:45.041Z,24.59
2017-10-17T14:33:47.508Z,24.58
2017-10-17T14:35:49.944Z,24.58
2017-10-17T14:37:52.406Z,24.58
2017-10-17T14:39:55.041Z,24.57
2017-10-17T14:41:57.541Z,24.56
2017-10-17T14:44:00.805Z,24.56
2017-10-17T14:46:03.244Z,24.56
2017-10-17T14:48:05.694Z,24.56
2017-10-17T14:50:08.201Z,24.57
2017-10-17T14:52:10.717Z,24.57
2017-10-17T14:54:13.168Z,24.57
2017-10-17T14:56:15.723Z,24.56
2017-10-17T14:58:18.178Z,24.56
2017-10-17T15:00:20.636Z,24.56
2017-10-17T15:02:23.116Z,24.56
2017-10-17T15:04:25.578Z,24.56
2017-10-17T15:06:28.026Z,24.56
2017-10-17T15:08:30.521Z,24.56
2017-10-17T15:10:32.957Z,24.55
2017-10-17T15:12:35.544Z,24.56
2017-10-17T15:14:38.012Z,24.57
2017-10-17T15:16:40.449Z,24.56
2017-10-17T15:18:42.905Z,24.56
2017-10-17T15:20:45.402Z,24.57
2017-10-17T15:22:47.850Z,24.66
2017-10-17T15:24:50.292Z,24.67
2017-10-17T15:26:52.769Z,24.66
2017-10-17T15:28:55.254Z,24.66
2017-10-17T15:30:57.706Z,24.64
2017-10-17T15:33:00.278Z,24.63
2017-10-17T15:35:02.764Z,24.62
2017-10-17T15:37:05.358Z,24.61
2017-10-17T15:39:07.882Z,24.59
2017-10-17T15:41:10.349Z,24.58
2017-10-17T15:43:12.797Z,24.57
2017-10-17T15:45:15.266Z,24.56
2017-10-17T15:47:17.708Z,24.54
2017-10-17T15:49:20.151Z,24.53
2017-10-17T15:51:22.634Z,24.53
2017-10-17T15:53:25.187Z,24.51
2017-10-17T15:55:27.636Z,24.50
2017-10-17T15:57:30.106Z,24.49
2017-10-17T15:59:32.647Z,24.47
2017-10-17T16:01:35.116Z,24.47
2017-10-17T16:03:37.582Z,24.45
2017-10-17T16:05:40.048Z,24.43
2017-10-17T16:07:42.579Z,24.42
2017-10-17T16:09:45.242Z,24.41
2017-10-17T16:11:47.947Z,24.40
2017-10-17T16:13:50.453Z,24.38
2017-10-17T16:15:52.924Z,24.37
2017-10-17T16:17:55.368Z,24.36
2017-10-17T16:19:57.915Z,24.35
2017-10-17T16:22:00.405Z,24.34
2017-10-17T16:24:02.845Z,24.34
2017-10-17T16:26:05.296Z,24.32
2017-10-17T16:28:07.780Z,24.32
2017-10-17T16:30:10.270Z,24.31
2017-10-17T16:32:12.712Z,24.30
2017-10-17T16:34:15.181Z,24.29
2017-10-17T16:36:17.623Z,24.28
2017-10-17T16:38:20.074Z,24.27
2017-10-17T16:40:22.553Z,24.26
2017-10-17T16:42:25.023Z,24.26
2017-10-17T16:44:27.477Z,24.25
2017-10-17T16:46:30.038Z,24.24
2017-10-17T16:48:32.497Z,24.24
2017-10-17T16:50:34.953Z,24.23
2017-10-17T16:52:37.423Z,24.22
2017-10-17T16:54:39.868Z,24.22
2017-10-17T16:56:42.324Z,24.21
2017-10-17T16:58:44.834Z,24.20
2017-10-17T17:00:47.308Z,24.20
2017-10-17T17:02:49.784Z,24.19
2017-10-17T17:04:52.250Z,24.18
2017-10-17T17:06:54.684Z,24.17
2017-10-17T17:08:57.188Z,24.17
2017-10-17T17:10:59.681Z,24.16
2017-10-17T17:13:02.137Z,24.16
2017-10-17T17:15:04.701Z,24.14
2017-10-17T17:17:07.176Z,24.15
2017-10-17T17:19:09.617Z,24.14
2017-10-17T17:21:12.077Z,24.13
2017-10-17T17:23:14.545Z,24.12
2017-10-17T17:25:17.051Z,24.12
2017-10-17T17:27:19.531Z,24.11
2017-10-17T17:29:22.008Z,24.11
2017-10-17T17:31:24.449Z,24.10
2017-10-17T17:33:27.104Z,24.09
2017-10-17T17:35:29.568Z,24.09
2017-10-17T17:37:32.082Z,24.09
2017-10-17T17:39:34.549Z,24.08
2017-10-17T17:41:37.031Z,24.08
2017-10-17T17:43:39.493Z,24.08
2017-10-17T17:45:41.932Z,24.08
2017-10-17T17:47:44.406Z,24.07
2017-10-17T17:49:46.857Z,24.06
2017-10-17T17:51:49.297Z,24.06
2017-10-17T17:53:51.756Z,24.06
2017-10-17T17:55:54.229Z,24.05
2017-10-17T17:57:56.678Z,24.05
2017-10-17T17:59:59.164Z,24.05
2017-10-17T18:02:01.616Z,24.04
2017-10-17T18:04:04.058Z,24.04
2017-10-17T18:06:06.531Z,24.03
2017-10-17T18:08:08.984Z,24.03
2017-10-17T18:10:11.435Z,24.02
2017-10-17T18:12:13.901Z,24.03
2017-10-17T18:14:16.368Z,24.02
2017-10-17T18:16:18.969Z,24.02
2017-10-17T18:18:21.454Z,24.02
2017-10-17T18:20:23.930Z,24.02
2017-10-17T18:22:26.416Z,24.01
2017-10-17T18:24:28.899Z,24.01
2017-10-17T18:26:31.415Z,24.00
2017-10-17T18:28:33.943Z,24.00
2017-10-17T18:30:36.551Z,24.00
2017-10-17T18:32:39.085Z,24.00
2017-10-17T18:34:41.527Z,24.00
2017-10-17T18:36:44.005Z,23.99
2017-10-17T18:38:46.541Z,23.99
2017-10-17T18:40:49.074Z,23.98
2017-10-17T18:42:51.557Z,23.98
2017-10-17T18:44:54.015Z,23.98
2017-10-17T18:46:56.481Z,23.98
2017-10-17T18:48:58.965Z,23.97
2017-10-17T18:51:01.450Z,23.97
2017-10-17T18:53:03.903Z,23.96
2017-10-17T18:55:06.396Z,23.96
2017-10-17T18:57:08.838Z,23.96
2017-10-17T18:59:11.289Z,23.96
2017-10-17T19:01:13.812Z,23.96
2017-10-17T19:03:16.282Z,23.96
2017-10-17T19:05:18.723Z,23.95
2017-10-17T19:07:21.282Z,23.95
2017-10-17T19:09:23.782Z,23.95
2017-10-17T19:11:26.253Z,23.95
2017-10-17T19:13:28.740Z,23.95
2017-10-17T19:15:31.188Z,23.95
2017-10-17T19:17:33.913Z,23.94
2017-10-17T19:19:36.400Z,23.94
2017-10-17T19:21:38.853Z,23.93
2017-10-17T19:23:41.370Z,23.94
2017-10-17T19:25:43.828Z,23.94
2017-10-17T19:27:46.310Z,23.93
2017-10-17T19:29:48.756Z,23.93
2017-10-17T19:31:51.233Z,23.93
2017-10-17T19:33:53.685Z,23.92
2017-10-17T19:35:56.138Z,23.92
2017-10-17T19:37:58.706Z,23.93
2017-10-17T19:40:01.173Z,23.92
2017-10-17T19:42:03.629Z,23.92
2017-10-17T19:44:06.103Z,23.93
2017-10-17T19:46:08.545Z,23.92
2017-10-17T19:48:11.002Z,23.92
2017-10-17T19:50:13.526Z,23.91
2017-10-17T19:52:16.052Z,23.91
2017-10-17T19:54:18.572Z,23.91
2017-10-17T19:56:21.048Z,23.91
2017-10-17T19:58:23.492Z,23.92
2017-10-17T20:00:25.937Z,23.92
2017-10-17T20:02:28.393Z,23.91
2017-10-17T20:04:30.884Z,23.91
2017-10-17T20:06:33.450Z,23.91
2017-10-17T20:08:35.927Z,23.91
2017-10-17T20:10:38.367Z,23.90
2017-10-17T20:12:40.812Z,23.90
2017-10-17T20:14:43.283Z,23.89
2017-10-17T20:16:45.754Z,23.90
2017-10-17T20:18:48.488Z,23.89
2017-10-17T20:20:50.961Z,23.89
2017-10-17T20:22:53.413Z,23.89
2017-10-17T20:24:55.880Z,23.88
2017-10-17T20:26:58.348Z,23.88
2017-10-17T20:29:00.785Z,23.88
2017-10-17T20:31:03.247Z,23.87
2017-10-17T20:33:05.724Z,23.87
2017-10-17T20:35:08.167Z,23.87
2017-10-17T20:37:10.657Z,23.87
2017-10-17T20:39:13.127Z,23.87
2017-10-17T20:41:15.594Z,23.87
2017-10-17T20:43:18.119Z,23.87
2017-10-17T20:45:20.584Z,23.86
2017-10-17T20:47:23.041Z,23.87
2017-10-17T20:49:25.481Z,23.87
2017-10-17T20:51:27.958Z,23.86
2017-10-17T20:53:30.419Z,23.86
2017-10-17T20:55:32.869Z,23.85
2017-10-17T20:57:35.414Z,23.85
2017-10-17T20:59:38.034Z,23.85
2017-10-17T21:01:40.488Z,23.85
2017-10-17T21:03:43.043Z,23.85
2017-10-17T21:05:45.573Z,23.84
2017-10-17T21:07:48.031Z,23.83
2017-10-17T21:09:50.519Z,23.83
2017-10-17T21:11:52.972Z,23.84
2017-10-17T21:13:55.411Z,23.84
2017-10-17T21:15:57.868Z,23.83
2017-10-17T21:18:00.400Z,23.83
2017-10-17T21:20:03.162Z,23.83
2017-10-17T21:22:05.945Z,23.82
2017-10-17T21:24:08.389Z,23.82
2017-10-17T21:26:10.901Z,23.82
2017-10-17T21:28:13.475Z,23.82
2017-10-17T21:30:15.917Z,23.82
2017-10-17T21:32:18.378Z,23.82
2017-10-17T21:34:20.836Z,23.81
2017-10-17T21:36:23.280Z,23.82
2017-10-17T21:38:25.833Z,23.81
2017-10-17T21:40:28.296Z,23.82
2017-10-17T21:42:30.776Z,23.81
2017-10-17T21:44:33.247Z,23.81
2017-10-17T21:46:35.724Z,23.81
2017-10-17T21:48:38.164Z,23.80
2017-10-17T21:50:40.606Z,23.79
2017-10-17T21:52:43.075Z,23.79
2017-10-17T21:54:45.581Z,23.79
2017-10-17T21:56:48.019Z,23.79
2017-10-17T21:58:50.476Z,23.79
2017-10-17T22:01:01.938Z,23.79
2017-10-17T22:03:05.523Z,23.78
2017-10-17T22:05:07.983Z,23.78
2017-10-17T22:07:10.429Z,23.78
2017-10-17T22:09:12.882Z,23.78
2017-10-17T22:11:15.391Z,23.78
2017-10-17T22:13:17.825Z,23.77
2017-10-17T22:15:20.256Z,23.76
2017-10-17T22:17:22.729Z,23.77
2017-10-17T22:19:25.172Z,23.76
2017-10-17T22:21:27.951Z,23.75
2017-10-17T22:23:30.422Z,23.75
2017-10-17T22:25:32.848Z,23.75
2017-10-17T22:27:35.304Z,23.75
2017-10-17T22:29:37.767Z,23.75
2017-10-17T22:31:40.202Z,23.74
2017-10-17T22:33:42.632Z,23.74
2017-10-17T22:35:45.136Z,23.74
2017-10-17T22:37:47.595Z,23.74
2017-10-17T22:39:50.058Z,23.74
2017-10-17T22:41:52.512Z,23.74
2017-10-17T22:43:54.973Z,23.74
2017-10-17T22:45:57.434Z,23.73
2017-10-17T22:47:59.889Z,23.73
2017-10-17T22:50:02.472Z,23.73
2017-10-17T22:52:04.915Z,23.73
2017-10-17T22:54:07.390Z,23.73
2017-10-17T22:56:09.823Z,23.72
2017-10-17T22:58:12.294Z,23.72
2017-10-17T23:00:14.862Z,23.72
2017-10-17T23:02:17.300Z,23.72
2017-10-17T23:04:19.742Z,23.71
2017-10-17T23:06:22.203Z,23.70
2017-10-17T23:08:24.636Z,23.69
2017-10-17T23:10:27.070Z,23.70
2017-10-17T23:12:29.577Z,23.70
2017-10-17T23:14:32.020Z,23.69
2017-10-17T23:16:34.456Z,23.69
2017-10-17T23:18:48.731Z,23.69
2017-10-17T23:20:51.253Z,23.68
2017-10-17T23:22:53.786Z,23.68
2017-10-17T23:24:56.340Z,23.68
2017-10-17T23:26:58.856Z,23.68
2017-10-17T23:29:01.295Z,23.68
2017-10-17T23:31:03.788Z,23.67
2017-10-17T23:33:06.224Z,23.67
2017-10-17T23:35:08.670Z,23.67
2017-10-17T23:37:11.142Z,23.67
2017-10-17T23:39:13.593Z,23.66
2017-10-17T23:41:16.024Z,23.67
2017-10-17T23:43:18.488Z,23.66
2017-10-17T23:45:20.950Z,23.66
2017-10-17T23:47:23.385Z,23.66
2017-10-17T23:49:25.916Z,23.65
2017-10-17T23:51:28.371Z,23.66
2017-10-17T23:53:30.860Z,23.65
2017-10-17T23:55:33.325Z,23.65
2017-10-17T23:57:35.781Z,23.65
2017-10-17T23:59:38.230Z,23.64
